Accueil
METAR-TAF:

METAR-TAF

Aéroports :

Aéroport de Kirkwall

Kirkwall, Écosse

latitude: 58-57N, longitude: 002-54W, altitude: 21 m

Observation

Le bulletin a été fait il y a 11 minutes, à 05:20 UTC
Vent 12 kt de sud/sud-est
Température 5°C
Humidité 81%
Pression 1021 hPa
Visibilité 10 km ou plus

METAR: EGPA 110520Z AUTO 15012KT 9999 NCD 05/02 Q1021

Heure: 05:31 (05:31 UTC)

Prévision

Le bulletin a été fait il y a 3 heures et 36 minutes, à 01:55 UTC
Prévision valable du 11 à 03 UTC au 11 à 12 UTC
Vent 10 kt de sud/sud-est
Visibilité 10 km ou plus
pas de nuages en-dessous de 1500 mètres et pas de cumulonimbus.
Probabilité 40% :
Temporairement
du 11 à 05 UTC au 11 à 12 UTC
Vent 15 kt de sud/sud-est avec des rafales jusqu'à 28 kt

TAF: EGPA 110155Z 1103/1112 15010KT CAVOK PROB40 TEMPO 1105/1112 16015G28KT

Observations et prévisions météorologiques de plus de 4000 aéroports (messages METAR et TAF).

Les stations disponibles sont représentées par des disques jaunes et rouges sur la carte.

Passer la souris dessus pour voir le nom de la station.

Cliquer dessus pour voir les observations et prévisions météorologiques.

Pour changer de carte: cliquez sur les boutons verts avec une croix noire pour zoomer, sur le bouton vert avec un tiret pour effectuer un zoom arrière, ou sur les flèches vertes pour les cartes adjacentes.


METAR-TAF: